sensor_id;sensor_type;location;lat;lon;timestamp;pressure;altitude;pressure_sealevel;temperature;humidity
71956;BME280;59829;50.562;6.258;2023-04-25T00:25:17;95115.94;;;6.80;100.00
71956;BME280;59829;50.562;6.258;2023-04-25T00:55:18;95101.25;;;6.61;100.00
71956;BME280;59829;50.562;6.258;2023-04-25T01:25:19;95110.03;;;6.46;100.00
71956;BME280;59829;50.562;6.258;2023-04-25T01:55:20;95108.56;;;6.08;100.00
71956;BME280;59829;50.562;6.258;2023-04-25T02:25:20;95128.56;;;5.89;100.00
71956;BME280;59829;50.562;6.258;2023-04-25T02:55:21;95115.38;;;5.84;100.00
71956;BME280;59829;50.562;6.258;2023-04-25T03:25:22;95134.50;;;5.65;100.00
71956;BME280;59829;50.562;6.258;2023-04-25T03:55:22;95138.34;;;5.47;100.00
71956;BME280;59829;50.562;6.258;2023-04-25T04:25:23;95163.44;;;5.02;100.00
71956;BME280;59829;50.562;6.258;2023-04-25T04:55:24;95182.25;;;4.87;100.00
71956;BME280;59829;50.562;6.258;2023-04-25T05:25:24;95214.09;;;4.66;100.00
71956;BME280;59829;50.562;6.258;2023-04-25T05:55:25;95242.00;;;4.66;100.00
71956;BME280;59829;50.562;6.258;2023-04-25T06:25:25;95269.22;;;4.76;100.00
71956;BME280;59829;50.562;6.258;2023-04-25T06:55:25;95280.41;;;4.99;100.00
71956;BME280;59829;50.562;6.258;2023-04-25T07:25:26;95299.69;;;5.14;100.00
71956;BME280;59829;50.562;6.258;2023-04-25T07:55:26;95341.16;;;5.28;100.00
71956;BME280;59829;50.562;6.258;2023-04-25T08:25:27;95393.06;;;5.49;100.00
71956;BME280;59829;50.562;6.258;2023-04-25T08:55:27;95441.31;;;5.24;100.00
71956;BME280;59829;50.562;6.258;2023-04-25T09:25:34;95485.22;;;5.38;99.70
71956;BME280;59829;50.562;6.258;2023-04-25T09:55:35;95512.91;;;6.57;97.26
71956;BME280;59829;50.562;6.258;2023-04-25T10:25:37;95529.41;;;6.52;92.94
71956;BME280;59829;50.562;6.258;2023-04-25T10:55:50;95530.00;;;6.55;89.75
71956;BME280;59829;50.562;6.258;2023-04-25T11:25:51;95532.03;;;6.63;88.46
71956;BME280;59829;50.562;6.258;2023-04-25T11:55:52;95531.31;;;7.45;87.15
71956;BME280;59829;50.562;6.258;2023-04-25T12:25:53;95567.13;;;7.20;84.11
71956;BME280;59829;50.562;6.258;2023-04-25T12:55:53;95596.78;;;6.33;83.30
71956;BME280;59829;50.562;6.258;2023-04-25T13:25:54;95605.91;;;7.00;83.77
71956;BME280;59829;50.562;6.258;2023-04-25T13:55:55;95596.56;;;7.48;81.57
71956;BME280;59829;50.562;6.258;2023-04-25T14:25:55;95582.53;;;8.12;78.49
71956;BME280;59829;50.562;6.258;2023-04-25T14:55:56;95630.59;;;7.23;74.63
71956;BME280;59829;50.562;6.258;2023-04-25T15:25:56;95640.75;;;7.36;74.61
71956;BME280;59829;50.562;6.258;2023-04-25T15:55:57;95652.16;;;7.67;73.98
71956;BME280;59829;50.562;6.258;2023-04-25T16:25:57;95680.47;;;7.02;72.69
71956;BME280;59829;50.562;6.258;2023-04-25T16:55:57;95676.56;;;7.09;73.46
71956;BME280;59829;50.562;6.258;2023-04-25T17:25:58;95676.53;;;7.34;73.20
71956;BME280;59829;50.562;6.258;2023-04-25T17:55:58;95705.06;;;7.39;73.04
71956;BME280;59829;50.562;6.258;2023-04-25T18:25:58;95728.94;;;6.87;73.14
71956;BME280;59829;50.562;6.258;2023-04-25T18:55:59;95750.34;;;6.32;73.00
71956;BME280;59829;50.562;6.258;2023-04-25T19:26:00;95791.31;;;5.87;73.86
71956;BME280;59829;50.562;6.258;2023-04-25T19:56:01;95793.00;;;5.59;74.95
71956;BME280;59829;50.562;6.258;2023-04-25T20:26:03;95822.56;;;5.18;76.02
71956;BME280;59829;50.562;6.258;2023-04-25T20:56:03;95829.56;;;5.28;77.19
71956;BME280;59829;50.562;6.258;2023-04-25T21:26:05;95832.19;;;5.12;77.14
71956;BME280;59829;50.562;6.258;2023-04-25T21:56:06;95834.16;;;4.93;77.22
71956;BME280;59829;50.562;6.258;2023-04-25T22:26:06;95855.97;;;4.66;77.29
71956;BME280;59829;50.562;6.258;2023-04-25T22:56:07;95867.66;;;4.38;77.50
71956;BME280;59829;50.562;6.258;2023-04-25T23:26:09;95888.59;;;4.10;78.61
71956;BME280;59829;50.562;6.258;2023-04-25T23:56:10;95908.19;;;3.58;79.28
